Pacific Hope — 3FLH6 — position and weather

sailwx.info

Track history (hours):
 
Tides and Currents Weather Stations Pressure Air Temp Water Temp Dewpoint Dewpoint Depression Visibility Wind Speed Wind Dir Waves Ship Positions

Pacific Hope

Last reported at 2014-Dec-19 13:27 UTC. Time now 2014-Dec-22 01:24 UTC.
Position N 22°08' E 114°15'.

Length 169 m; draft 5.4 m.

Type: Ship. MMSI: 351849000.

Date/timePositionNaut miles runAvg speedWind from/ knotsBaromVisibWave heightAir tempDewpointWater temp
2014-Dec-19 13:27N 22°08' E 114°15'1210.8
2014-Dec-19 12:20N 22°16' E 114°06'1210.8
2014-Dec-19 11:14N 22°22' E 113°55'6 8.5
2014-Dec-19 10:33N 22°27' E 113°53'4 0.2
2014-Dec-18 10:17N 22°30' E 113°50'0 0.0
2014-Dec-17 00:29N 22°31' E 113°50'0 0.0
2014-Dec-16 09:29N 22°31' E 113°50'0 0.0
2014-Dec-16 08:29N 22°31' E 113°50'0 0.0
2014-Dec-16 07:29N 22°31' E 113°50'0 0.0
2014-Dec-16 06:23N 22°31' E 113°50'0 0.0
2014-Dec-16 05:30N 22°31' E 113°50'0 0.0
2014-Dec-16 04:11N 22°31' E 113°50'0 0.0
2014-Dec-16 03:29N 22°31' E 113°50'0 0.0
2014-Dec-16 02:05N 22°31' E 113°50'0 0.0
2014-Dec-16 01:05N 22°31' E 113°50'0 0.0
2014-Dec-15 09:29N 22°31' E 113°50'0 0.0
2014-Dec-15 08:33N 22°31' E 113°50'0 0.0
2014-Dec-15 07:33N 22°31' E 113°50'0 0.0
2014-Dec-15 06:33N 22°31' E 113°50'0 0.0
2014-Dec-15 05:33N 22°31' E 113°50'0 0.0
2014-Dec-15 04:33N 22°31' E 113°50'0 0.0
2014-Dec-15 03:33N 22°31' E 113°50'0 0.0
2014-Dec-15 02:33N 22°31' E 113°50'0 0.0
2014-Dec-15 01:33N 22°31' E 113°50'0 0.0
2014-Dec-15 00:33N 22°31' E 113°50'0 0.0
2014-Dec-14 23:32N 22°31' E 113°50'0 0.0
2014-Dec-14 22:33N 22°31' E 113°50'0 0.0
2014-Dec-14 21:33N 22°31' E 113°50'0 0.0
2014-Dec-14 20:33N 22°31' E 113°50'0 0.0
2014-Dec-14 19:33N 22°31' E 113°50'0 0.0
2014-Dec-14 18:33N 22°31' E 113°50'0 0.0
2014-Dec-14 17:33N 22°31' E 113°50'0 0.0
2014-Dec-14 16:33N 22°31' E 113°50'0 0.0
2014-Dec-14 15:33N 22°31' E 113°50'0 0.0
2014-Dec-14 14:33N 22°31' E 113°50'0 0.0
2014-Dec-14 13:33N 22°31' E 113°50'0 0.0
2014-Dec-14 12:33N 22°31' E 113°50'0 0.0
2014-Dec-14 11:30N 22°31' E 113°50'0 0.0
2014-Dec-14 10:33N 22°31' E 113°50'0 0.0
2014-Dec-14 09:30N 22°30' E 113°50'0 0.0
2014-Dec-14 08:33N 22°31' E 113°50'0 0.0
2014-Dec-14 07:33N 22°31' E 113°50'0 0.0
2014-Dec-14 06:33N 22°31' E 113°50'0 0.0
2014-Dec-14 05:33N 22°30' E 113°50'0 0.0
2014-Dec-14 04:33N 22°31' E 113°50'0 0.0
2014-Dec-14 03:33N 22°31' E 113°50'0 0.0
2014-Dec-14 02:32N 22°31' E 113°50'0 0.0
2014-Dec-14 01:33N 22°31' E 113°50'0 0.0
2014-Dec-13 04:08N 22°31' E 113°50'1 1.2
2014-Dec-13 03:33N 22°30' E 113°51'7 6.9
2014-Dec-13 02:33N 22°24' E 113°54'8 7.3
2014-Dec-13 01:30N 22°21' E 114°01'17 1.0
2014-Dec-12 08:25N 22°06' E 114°09'6 4.9
2014-Dec-12 07:12N 22°05' E 114°16'  
Track history (hours):
 
Tides and Currents Weather Stations Pressure Air Temp Water Temp Dewpoint Dewpoint Depression Visibility Wind Speed Wind Dir Waves Ship Positions

Pacific Hope

Last reported at 2014-Dec-19 13:27 UTC. Time now 2014-Dec-22 01:24 UTC.
Position N 22°08' E 114°15'.

Length 169 m; draft 5.4 m.

Type: Ship. MMSI: 351849000.

Date/timePositionNaut miles runAvg speedWind from/ knotsBaromVisibWave heightAir tempDewpointWater temp
2014-Dec-19 13:27N 22°08' E 114°15'1210.8
2014-Dec-19 12:20N 22°16' E 114°06'1210.8
2014-Dec-19 11:14N 22°22' E 113°55'6 8.5
2014-Dec-19 10:33N 22°27' E 113°53'4 0.2
2014-Dec-18 10:17N 22°30' E 113°50'0 0.0
2014-Dec-17 00:29N 22°31' E 113°50'0 0.0
2014-Dec-16 09:29N 22°31' E 113°50'0 0.0
2014-Dec-16 08:29N 22°31' E 113°50'0 0.0
2014-Dec-16 07:29N 22°31' E 113°50'0 0.0
2014-Dec-16 06:23N 22°31' E 113°50'0 0.0
2014-Dec-16 05:30N 22°31' E 113°50'0 0.0
2014-Dec-16 04:11N 22°31' E 113°50'0 0.0
2014-Dec-16 03:29N 22°31' E 113°50'0 0.0
2014-Dec-16 02:05N 22°31' E 113°50'0 0.0
2014-Dec-16 01:05N 22°31' E 113°50'0 0.0
2014-Dec-15 09:29N 22°31' E 113°50'0 0.0
2014-Dec-15 08:33N 22°31' E 113°50'0 0.0
2014-Dec-15 07:33N 22°31' E 113°50'0 0.0
2014-Dec-15 06:33N 22°31' E 113°50'0 0.0
2014-Dec-15 05:33N 22°31' E 113°50'0 0.0
2014-Dec-15 04:33N 22°31' E 113°50'0 0.0
2014-Dec-15 03:33N 22°31' E 113°50'0 0.0
2014-Dec-15 02:33N 22°31' E 113°50'0 0.0
2014-Dec-15 01:33N 22°31' E 113°50'0 0.0
2014-Dec-15 00:33N 22°31' E 113°50'0 0.0
2014-Dec-14 23:32N 22°31' E 113°50'0 0.0
2014-Dec-14 22:33N 22°31' E 113°50'0 0.0
2014-Dec-14 21:33N 22°31' E 113°50'0 0.0
2014-Dec-14 20:33N 22°31' E 113°50'0 0.0
2014-Dec-14 19:33N 22°31' E 113°50'0 0.0
2014-Dec-14 18:33N 22°31' E 113°50'0 0.0
2014-Dec-14 17:33N 22°31' E 113°50'0 0.0
2014-Dec-14 16:33N 22°31' E 113°50'0 0.0
2014-Dec-14 15:33N 22°31' E 113°50'0 0.0
2014-Dec-14 14:33N 22°31' E 113°50'0 0.0
2014-Dec-14 13:33N 22°31' E 113°50'0 0.0
2014-Dec-14 12:33N 22°31' E 113°50'0 0.0
2014-Dec-14 11:30N 22°31' E 113°50'0 0.0
2014-Dec-14 10:33N 22°31' E 113°50'0 0.0
2014-Dec-14 09:30N 22°30' E 113°50'0 0.0
2014-Dec-14 08:33N 22°31' E 113°50'0 0.0
2014-Dec-14 07:33N 22°31' E 113°50'0 0.0
2014-Dec-14 06:33N 22°31' E 113°50'0 0.0
2014-Dec-14 05:33N 22°30' E 113°50'0 0.0
2014-Dec-14 04:33N 22°31' E 113°50'0 0.0
2014-Dec-14 03:33N 22°31' E 113°50'0 0.0
2014-Dec-14 02:32N 22°31' E 113°50'0 0.0
2014-Dec-14 01:33N 22°31' E 113°50'0 0.0
2014-Dec-13 04:08N 22°31' E 113°50'1 1.2
2014-Dec-13 03:33N 22°30' E 113°51'7 6.9
2014-Dec-13 02:33N 22°24' E 113°54'8 7.3
2014-Dec-13 01:30N 22°21' E 114°01'17 1.0
2014-Dec-12 08:25N 22°06' E 114°09'6 4.9
2014-Dec-12 07:12N 22°05' E 114°16'  

Dump ship's entire track history